KPHN

St Clair County International Airport

Port Huron, Michigan, USA
METAR KPHN 181335Z AUTO 00000KT 7SM BKN012 OVC018 M02/M03 A3005 RMK AO2
Observed Flight Rules
Jan-18 @ 13:35 UTC (26 minutes ago) Marginal Visual Flight Rules
Visibility Clouds
7 miles
  • Broken at 1,200' AGL
  • Overcast at 1,800' AGL
Temperatures Readings
Current -2°C / 28°F
Dewpoint -3°C / 27°F
Humidity 93%
Altimeter 30.05" Hg
Pressure 1017.62 hPa
Elevation 198
METAR KPHN 181335Z AUTO 00000KT 7SM BKN012 OVC018 M02/M03 A3005 RMK AO2
Observed Flight Rules
Jan-18 @ 13:35 UTC
(26 minutes ago)
MVFR
Clouds
  • Broken at 1,200' AGL
  • Overcast at 1,800' AGL
Temperature Dewpoint
-2°C / 28°F -3°C / 27°F
Humidity Altimeter Pressure
93% 30.05" Hg 1017.62 hPa